Mariazell, Austria
Current Conditions -  °F | °C
As of 4:50 PM on Sunday 21 Dec 2014 (Local Time) from LOXZ Reporting Station
Scattered Clouds Scattered Clouds  
Wind Chill: 29°   Ceiling: Unl
Heat Index: 37°   Visibility: 25mi
Dew Point: 21°   Wind: 13mph
Humidity: 52%   Direction: 270°W
Pressure: 30.36"   Gusts: NA
Location:  47.77°N, 15.32°E
Report Text: LOXZ 211450Z 27011KT 40KM FEW060SC SCT300CI 03/M06 Q1028 RMKBKN
Loading
Personal Weather Stations






























Interactive Weather Map New forecast layout! Learn more

10-Day Weather Forecast

Advertisements
Track Severe Weather on mobile